createdAt,value
2022-12-08T00:00:41.504Z,35.92
2022-12-08T00:03:13.572Z,35.96
2022-12-08T00:06:04.591Z,36.01
2022-12-08T00:08:55.097Z,36.06
2022-12-08T00:11:26.989Z,36.11
2022-12-08T00:13:58.728Z,36.14
2022-12-08T00:16:30.568Z,36.16
2022-12-08T00:19:02.359Z,36.21
2022-12-08T00:21:34.165Z,36.26
2022-12-08T00:24:05.959Z,36.30
2022-12-08T00:26:37.900Z,36.35
2022-12-08T00:29:14.447Z,36.45
2022-12-08T00:31:49.042Z,36.51
2022-12-08T00:34:20.874Z,36.58
2022-12-08T00:36:52.634Z,36.61
2022-12-08T00:39:24.668Z,36.64
2022-12-08T00:42:14.757Z,36.79
2022-12-08T00:44:48.194Z,36.84
2022-12-08T00:47:24.525Z,36.86
2022-12-08T00:49:56.747Z,36.90
2022-12-08T00:52:28.488Z,36.93
2022-12-08T00:55:00.295Z,36.99
2022-12-08T00:57:32.522Z,37.04
2022-12-08T01:00:04.675Z,37.12
2022-12-08T01:02:36.607Z,37.17
2022-12-08T01:05:08.665Z,37.24
2022-12-08T01:07:40.545Z,37.25
2022-12-08T01:10:12.568Z,37.21
2022-12-08T01:12:44.399Z,37.26
2022-12-08T01:15:16.182Z,37.26
2022-12-08T01:17:47.944Z,37.28
2022-12-08T01:20:19.732Z,37.34
2022-12-08T01:22:51.550Z,37.35
2022-12-08T01:25:23.381Z,37.40
2022-12-08T01:27:55.146Z,37.43
2022-12-08T01:30:26.996Z,37.45
2022-12-08T01:32:59.233Z,37.50
2022-12-08T01:35:31.260Z,37.48
2022-12-08T01:38:03.095Z,37.50
2022-12-08T01:40:34.860Z,37.50
2022-12-08T01:43:06.671Z,37.57
2022-12-08T01:45:38.630Z,37.57
2022-12-08T01:48:12.027Z,37.59
2022-12-08T01:50:43.930Z,37.65
2022-12-08T01:53:20.381Z,37.72
2022-12-08T01:55:53.769Z,37.70
2022-12-08T01:58:35.600Z,37.74
2022-12-08T02:01:07.508Z,37.80
2022-12-08T02:03:43.792Z,37.80
2022-12-08T02:06:15.574Z,37.86
2022-12-08T02:08:47.500Z,37.86
2022-12-08T02:11:19.215Z,37.90
2022-12-08T02:13:51.060Z,37.90
2022-12-08T02:16:35.080Z,37.87
2022-12-08T02:19:32.770Z,37.97
2022-12-08T02:22:15.536Z,38.00
2022-12-08T02:25:04.525Z,38.04
2022-12-08T02:27:38.852Z,38.06
2022-12-08T02:30:29.675Z,38.13
2022-12-08T02:33:10.842Z,38.20
2022-12-08T02:36:08.877Z,38.22
2022-12-08T02:39:00.954Z,38.31
2022-12-08T02:41:41.539Z,38.38
2022-12-08T02:44:29.031Z,38.33
2022-12-08T02:47:05.926Z,38.39
2022-12-08T02:49:37.715Z,38.36
2022-12-08T02:52:12.449Z,38.43
2022-12-08T02:54:46.021Z,38.52
2022-12-08T02:57:31.112Z,38.60
2022-12-08T03:00:09.460Z,38.57
2022-12-08T03:02:47.640Z,38.56
2022-12-08T03:05:38.169Z,38.61
2022-12-08T03:08:13.077Z,38.57
2022-12-08T03:10:52.659Z,38.50
2022-12-08T03:13:26.020Z,38.53
2022-12-08T03:15:57.977Z,38.51
2022-12-08T03:18:30.360Z,38.53
2022-12-08T03:21:02.148Z,38.56
2022-12-08T03:23:34.987Z,38.55
2022-12-08T03:26:33.303Z,38.57
2022-12-08T03:29:05.084Z,38.57
2022-12-08T03:31:38.534Z,38.63
2022-12-08T03:34:10.476Z,38.71
2022-12-08T03:36:42.331Z,38.78
2022-12-08T03:39:14.114Z,38.86
2022-12-08T03:41:46.248Z,38.90
2022-12-08T03:44:18.099Z,38.91
2022-12-08T03:46:49.998Z,38.94
2022-12-08T03:49:21.806Z,38.89
2022-12-08T03:51:54.507Z,38.94
2022-12-08T03:54:26.412Z,38.98
2022-12-08T03:56:58.196Z,39.00
2022-12-08T03:59:30.155Z,39.06
2022-12-08T04:02:02.378Z,39.05
2022-12-08T04:04:34.297Z,39.04
2022-12-08T04:07:06.104Z,39.05
2022-12-08T04:09:39.126Z,39.08
2022-12-08T04:12:10.980Z,39.07
2022-12-08T04:14:43.391Z,39.02
2022-12-08T04:17:15.226Z,39.09
2022-12-08T04:19:47.079Z,39.05
2022-12-08T04:22:18.927Z,39.08
2022-12-08T04:24:50.702Z,39.06
2022-12-08T04:27:22.486Z,39.08
2022-12-08T04:29:54.371Z,39.05
2022-12-08T04:32:26.798Z,39.05
2022-12-08T04:34:58.554Z,39.05
2022-12-08T04:37:30.516Z,39.05
2022-12-08T04:40:02.728Z,39.06
2022-12-08T04:42:34.758Z,39.05
2022-12-08T04:45:06.828Z,39.09
2022-12-08T04:47:38.595Z,39.07
2022-12-08T04:50:10.713Z,39.08
2022-12-08T04:52:42.535Z,39.11
2022-12-08T04:55:14.522Z,39.14
2022-12-08T04:57:46.604Z,39.17
2022-12-08T05:00:18.603Z,39.20
2022-12-08T05:02:50.474Z,39.21
2022-12-08T05:05:22.315Z,39.23
2022-12-08T05:07:54.191Z,39.30
2022-12-08T05:10:26.025Z,39.33
2022-12-08T05:12:58.577Z,39.36
2022-12-08T05:15:30.375Z,39.47
2022-12-08T05:18:02.232Z,39.57
2022-12-08T05:20:34.246Z,39.64
2022-12-08T05:23:06.003Z,39.68
2022-12-08T05:25:37.770Z,39.63
2022-12-08T05:28:39.617Z,39.63
2022-12-08T05:31:01.625Z,39.58
2022-12-08T05:33:33.384Z,39.47
2022-12-08T05:36:05.360Z,39.30
2022-12-08T05:38:37.306Z,39.15
2022-12-08T05:41:09.778Z,39.04
2022-12-08T05:43:41.709Z,38.99
2022-12-08T05:46:13.902Z,38.88
2022-12-08T05:48:45.768Z,38.80
2022-12-08T05:51:21.964Z,38.76
2022-12-08T05:53:54.061Z,38.65
2022-12-08T05:56:25.803Z,38.56
2022-12-08T05:58:57.689Z,38.49
2022-12-08T06:01:30.397Z,38.43
2022-12-08T06:04:03.221Z,38.37
2022-12-08T06:06:35.078Z,38.28
2022-12-08T06:09:06.907Z,38.26
2022-12-08T06:11:38.748Z,38.16
2022-12-08T06:14:11.241Z,38.09
2022-12-08T06:16:43.125Z,38.03
2022-12-08T06:19:15.686Z,37.95
2022-12-08T06:21:47.519Z,37.87
2022-12-08T06:24:19.362Z,37.79
2022-12-08T06:26:51.265Z,37.71
2022-12-08T06:29:23.513Z,37.66
2022-12-08T06:31:55.573Z,37.56
2022-12-08T06:34:27.471Z,37.44
2022-12-08T06:36:59.318Z,37.38
2022-12-08T06:39:31.128Z,37.31
2022-12-08T06:42:21.461Z,37.16
2022-12-08T06:44:53.230Z,37.07
2022-12-08T06:47:26.440Z,36.97
2022-12-08T06:49:58.509Z,36.91
2022-12-08T06:52:30.355Z,36.83
2022-12-08T06:55:02.096Z,36.81
2022-12-08T06:57:33.851Z,36.73
2022-12-08T07:00:06.483Z,36.67
2022-12-08T07:02:38.716Z,36.60
2022-12-08T07:05:10.638Z,36.59
2022-12-08T07:07:42.505Z,36.55
2022-12-08T07:10:14.413Z,36.48
2022-12-08T07:12:46.243Z,36.43
2022-12-08T07:15:18.075Z,36.33
2022-12-08T07:17:53.587Z,36.27
2022-12-08T07:20:28.426Z,36.24
2022-12-08T07:23:00.464Z,36.26
2022-12-08T07:25:32.208Z,36.18
2022-12-08T07:28:07.757Z,36.08
2022-12-08T07:30:39.823Z,36.04
2022-12-08T07:33:11.811Z,36.10
2022-12-08T07:35:48.994Z,36.17
2022-12-08T07:38:21.135Z,36.20
2022-12-08T07:40:53.386Z,36.20
2022-12-08T07:43:25.151Z,36.13
2022-12-08T07:45:57.045Z,36.03
2022-12-08T07:48:28.832Z,36.09
2022-12-08T07:51:01.651Z,36.12
2022-12-08T07:53:33.429Z,36.15
2022-12-08T07:56:06.166Z,36.10
2022-12-08T07:58:37.911Z,36.08
2022-12-08T08:01:26.373Z,36.15
2022-12-08T08:04:01.500Z,36.19
2022-12-08T08:06:33.973Z,36.11
2022-12-08T08:09:06.341Z,36.04
2022-12-08T08:11:38.243Z,36.02
2022-12-08T08:14:10.044Z,36.00
2022-12-08T08:16:46.951Z,36.04
2022-12-08T08:19:19.365Z,36.08
2022-12-08T08:21:51.218Z,36.16
2022-12-08T08:24:24.418Z,36.24
2022-12-08T08:26:56.245Z,36.35
2022-12-08T08:29:27.956Z,36.49
2022-12-08T08:31:59.789Z,36.59
2022-12-08T08:34:31.567Z,36.71
2022-12-08T08:37:03.445Z,36.77
2022-12-08T08:39:36.217Z,36.79
2022-12-08T08:42:08.282Z,36.76
2022-12-08T08:44:40.136Z,36.67
2022-12-08T08:47:11.909Z,36.62
2022-12-08T08:49:43.741Z,36.55
2022-12-08T08:52:15.540Z,36.50
2022-12-08T08:54:47.860Z,36.42
2022-12-08T08:57:25.338Z,36.40
2022-12-08T08:59:57.771Z,36.31
2022-12-08T09:02:29.724Z,36.26
2022-12-08T09:05:01.736Z,36.20
2022-12-08T09:07:33.755Z,36.16
2022-12-08T09:10:06.248Z,36.09
2022-12-08T09:12:38.289Z,36.01
2022-12-08T09:15:10.379Z,35.99
2022-12-08T09:17:42.147Z,35.93
2022-12-08T09:20:13.908Z,35.88
2022-12-08T09:22:45.695Z,35.77
2022-12-08T09:25:17.482Z,35.72
2022-12-08T09:27:49.309Z,35.55
2022-12-08T09:30:21.101Z,35.39
2022-12-08T09:32:52.932Z,35.46
2022-12-08T09:35:24.720Z,35.39
2022-12-08T09:37:56.488Z,35.39
2022-12-08T09:40:28.346Z,35.39
2022-12-08T09:43:20.529Z,35.31
2022-12-08T09:45:52.372Z,35.26
2022-12-08T09:48:24.749Z,35.21
2022-12-08T09:50:57.100Z,35.19
2022-12-08T09:53:35.962Z,35.15
2022-12-08T09:56:11.643Z,35.19
2022-12-08T09:58:50.569Z,35.16
2022-12-08T10:01:23.485Z,35.14
2022-12-08T10:03:56.232Z,35.22
2022-12-08T10:06:32.273Z,35.18
2022-12-08T10:09:21.148Z,35.22
2022-12-08T10:12:15.028Z,35.16
2022-12-08T10:14:56.146Z,35.00
2022-12-08T10:17:32.434Z,34.95
2022-12-08T10:20:10.431Z,35.03
2022-12-08T10:22:44.881Z,34.99
2022-12-08T10:25:21.005Z,34.99
2022-12-08T10:27:54.036Z,35.09
2022-12-08T10:30:25.872Z,35.28
2022-12-08T10:32:57.660Z,35.49
2022-12-08T10:36:08.267Z,35.69
2022-12-08T10:38:40.358Z,35.87
2022-12-08T10:41:12.176Z,36.07
2022-12-08T10:43:46.624Z,36.23
2022-12-08T10:46:19.441Z,36.31
2022-12-08T10:48:55.400Z,36.23
2022-12-08T10:51:31.583Z,36.26
2022-12-08T10:54:06.217Z,36.29
2022-12-08T10:56:38.075Z,36.38
2022-12-08T10:59:09.845Z,36.33
2022-12-08T11:01:42.153Z,36.30
2022-12-08T11:04:18.288Z,36.16
2022-12-08T11:06:50.427Z,36.05
2022-12-08T11:09:23.310Z,36.00
2022-12-08T11:11:57.559Z,35.83
2022-12-08T11:14:30.608Z,35.66
2022-12-08T11:17:06.470Z,35.74
2022-12-08T11:19:39.057Z,35.81
2022-12-08T11:22:28.142Z,35.83
2022-12-08T11:25:00.956Z,35.77
2022-12-08T11:27:32.934Z,35.83
2022-12-08T11:30:12.615Z,35.89
2022-12-08T11:32:50.437Z,36.02
2022-12-08T11:35:48.747Z,36.09
2022-12-08T11:38:22.795Z,36.12
2022-12-08T11:40:56.397Z,36.20
2022-12-08T11:43:36.502Z,36.14
2022-12-08T11:46:13.022Z,36.10
2022-12-08T11:48:44.838Z,36.10
2022-12-08T11:51:24.866Z,36.10
2022-12-08T11:54:03.326Z,36.09
2022-12-08T11:56:36.857Z,36.01
2022-12-08T11:59:16.248Z,35.91
2022-12-08T12:01:48.347Z,35.84
2022-12-08T12:04:24.916Z,35.80
2022-12-08T12:06:56.609Z,35.78
2022-12-08T12:09:32.015Z,35.70
2022-12-08T12:12:17.024Z,35.59
2022-12-08T12:15:08.087Z,35.53
2022-12-08T12:17:53.703Z,35.51
2022-12-08T12:20:27.296Z,35.57
2022-12-08T12:23:05.073Z,35.50
2022-12-08T12:25:36.934Z,35.38
2022-12-08T12:28:09.355Z,35.27
2022-12-08T12:30:56.612Z,35.24
2022-12-08T12:33:30.381Z,35.02
2022-12-08T12:36:06.317Z,34.99
2022-12-08T12:38:58.623Z,34.97
2022-12-08T12:41:33.240Z,34.92
2022-12-08T12:44:14.457Z,34.89
2022-12-08T12:46:46.275Z,34.84
2022-12-08T12:49:37.074Z,34.74
2022-12-08T12:52:23.844Z,34.68
2022-12-08T12:54:58.517Z,34.89
2022-12-08T12:57:40.188Z,34.81
2022-12-08T13:00:18.318Z,34.96
2022-12-08T13:02:50.689Z,34.91
2022-12-08T13:05:32.527Z,34.96
2022-12-08T13:08:07.211Z,34.96
2022-12-08T13:10:39.604Z,34.80
2022-12-08T13:13:12.936Z,34.78
2022-12-08T13:15:47.456Z,34.78
2022-12-08T13:18:22.385Z,34.87
2022-12-08T13:21:17.265Z,34.90
2022-12-08T13:24:17.954Z,34.99
2022-12-08T13:26:50.501Z,35.02
2022-12-08T13:29:23.024Z,35.06
2022-12-08T13:31:55.691Z,35.13
2022-12-08T13:34:46.526Z,35.12
2022-12-08T13:37:21.246Z,34.99
2022-12-08T13:40:04.530Z,34.98
2022-12-08T13:42:36.797Z,35.00
2022-12-08T13:45:27.931Z,35.01
2022-12-08T13:48:30.231Z,34.96
2022-12-08T13:57:08.887Z,34.99
2022-12-08T13:59:45.719Z,34.90
2022-12-08T14:02:19.061Z,34.98
2022-12-08T14:07:42.930Z,35.38
2022-12-08T14:10:25.553Z,35.55
2022-12-08T14:12:58.585Z,35.66
2022-12-08T14:15:37.280Z,35.70
2022-12-08T14:18:27.102Z,35.70
2022-12-08T14:21:20.472Z,35.70
2022-12-08T14:23:52.672Z,35.70
2022-12-08T14:26:24.447Z,35.71
2022-12-08T14:28:56.277Z,35.69
2022-12-08T14:31:28.211Z,35.69
2022-12-08T14:34:00.029Z,35.67
2022-12-08T14:36:33.892Z,35.56
2022-12-08T14:39:05.704Z,35.49
2022-12-08T14:41:37.609Z,35.48
2022-12-08T14:44:21.928Z,35.47
2022-12-08T14:47:11.607Z,35.48
2022-12-08T14:49:44.682Z,35.41
2022-12-08T14:52:16.541Z,35.39
2022-12-08T14:54:49.203Z,35.42
2022-12-08T14:57:21.173Z,35.55
2022-12-08T14:59:53.037Z,35.69
2022-12-08T15:02:29.424Z,35.83
2022-12-08T15:05:04.583Z,35.81
2022-12-08T15:07:46.324Z,35.79
2022-12-08T15:10:18.137Z,35.73
2022-12-08T15:13:05.057Z,35.71
2022-12-08T15:15:56.056Z,35.69
2022-12-08T15:18:37.991Z,35.65
2022-12-08T15:21:10.443Z,35.61
2022-12-08T15:23:45.767Z,35.53
2022-12-08T15:26:24.170Z,35.51
2022-12-08T15:28:55.993Z,35.46
2022-12-08T15:31:27.811Z,35.40
2022-12-08T15:33:59.852Z,35.35
2022-12-08T15:36:31.589Z,35.32
2022-12-08T15:39:03.424Z,35.30
2022-12-08T15:41:35.174Z,35.28
2022-12-08T15:44:06.965Z,35.21
2022-12-08T15:46:38.751Z,35.19
2022-12-08T15:49:17.347Z,35.21
2022-12-08T15:51:49.609Z,35.15
2022-12-08T15:54:21.887Z,35.21
2022-12-08T15:57:25.066Z,35.17
2022-12-08T15:59:46.557Z,35.05
2022-12-08T16:02:22.509Z,35.01
2022-12-08T16:07:46.808Z,35.23
2022-12-08T16:10:22.511Z,35.29
2022-12-08T16:13:55.450Z,35.37
2022-12-08T16:16:05.738Z,35.40
2022-12-08T16:18:38.319Z,35.31
2022-12-08T16:21:22.839Z,35.20
2022-12-08T16:24:07.522Z,35.11
2022-12-08T16:29:32.782Z,35.14
2022-12-08T16:32:04.712Z,35.12
2022-12-08T16:34:36.648Z,35.01
2022-12-08T16:37:29.188Z,35.01
2022-12-08T16:40:01.148Z,34.98
2022-12-08T16:42:50.479Z,34.91
2022-12-08T16:45:23.516Z,34.85
2022-12-08T16:47:59.258Z,34.87
2022-12-08T16:50:32.488Z,34.83
2022-12-08T16:53:07.441Z,34.88
2022-12-08T16:55:39.527Z,34.93
2022-12-08T16:58:11.387Z,34.96
2022-12-08T17:00:43.368Z,35.09
2022-12-08T17:03:15.696Z,35.10
2022-12-08T17:05:47.510Z,35.09
2022-12-08T17:08:19.374Z,35.09
2022-12-08T17:11:07.499Z,35.03
2022-12-08T17:13:40.602Z,34.98
2022-12-08T17:16:14.867Z,34.95
2022-12-08T17:18:47.153Z,34.96
2022-12-08T17:21:19.055Z,34.95
2022-12-08T17:23:50.882Z,34.55
2022-12-08T17:26:22.644Z,34.32
2022-12-08T17:29:01.899Z,34.46
2022-12-08T17:31:34.023Z,34.64
2022-12-08T17:34:08.479Z,34.56
2022-12-08T17:36:40.219Z,34.54
2022-12-08T17:39:18.283Z,34.61
2022-12-08T17:41:51.012Z,34.71
2022-12-08T17:44:22.788Z,34.70
2022-12-08T17:46:54.537Z,34.72
2022-12-08T17:49:27.111Z,34.81
2022-12-08T17:52:00.000Z,34.91
2022-12-08T17:54:31.786Z,35.06
2022-12-08T17:57:03.621Z,35.17
2022-12-08T17:59:35.462Z,35.21
2022-12-08T18:02:09.416Z,35.22
2022-12-08T18:04:41.267Z,35.22
2022-12-08T18:07:13.135Z,35.22
2022-12-08T18:09:44.901Z,35.20
2022-12-08T18:12:22.285Z,35.28
2022-12-08T18:14:55.362Z,35.30
2022-12-08T18:17:27.193Z,35.26
2022-12-08T18:19:58.947Z,35.21
2022-12-08T18:22:30.738Z,35.21
2022-12-08T18:25:02.476Z,35.20
2022-12-08T18:27:37.377Z,35.18
2022-12-08T18:30:15.068Z,35.15
2022-12-08T18:32:46.995Z,35.11
2022-12-08T18:35:18.723Z,35.11
2022-12-08T18:37:50.761Z,35.09
2022-12-08T18:40:22.868Z,35.05
2022-12-08T18:42:54.824Z,35.00
2022-12-08T18:45:26.619Z,34.92
2022-12-08T18:47:58.514Z,34.84
2022-12-08T18:50:30.497Z,34.77
2022-12-08T18:53:02.257Z,34.72
2022-12-08T18:55:34.067Z,34.76
2022-12-08T18:58:05.925Z,34.69
2022-12-08T19:00:37.680Z,34.77
2022-12-08T19:03:09.572Z,34.79
2022-12-08T19:05:41.986Z,34.80
2022-12-08T19:08:13.842Z,34.76
2022-12-08T19:10:45.702Z,34.73
2022-12-08T19:13:17.554Z,34.70
2022-12-08T19:15:49.419Z,34.69
2022-12-08T19:18:21.399Z,34.67
2022-12-08T19:20:56.899Z,34.61
2022-12-08T19:23:29.324Z,34.58
2022-12-08T19:26:01.480Z,34.56
2022-12-08T19:28:33.449Z,34.50
2022-12-08T19:31:06.126Z,34.46
2022-12-08T19:33:38.510Z,34.47
2022-12-08T19:36:15.189Z,34.58
2022-12-08T19:39:06.048Z,34.60
2022-12-08T19:41:56.831Z,34.66
2022-12-08T19:44:29.097Z,34.59
2022-12-08T19:47:01.841Z,34.58
2022-12-08T19:49:33.928Z,34.65
2022-12-08T19:52:06.231Z,34.79
2022-12-08T19:54:38.206Z,34.87
2022-12-08T19:57:11.777Z,34.92
2022-12-08T19:59:43.552Z,34.96
2022-12-08T20:02:15.458Z,34.98
2022-12-08T20:04:47.519Z,35.06
2022-12-08T20:07:19.323Z,35.11
2022-12-08T20:09:51.122Z,35.18
2022-12-08T20:12:22.933Z,35.19
2022-12-08T20:14:54.738Z,35.28
2022-12-08T20:17:26.590Z,35.33
2022-12-08T20:20:00.572Z,35.34
2022-12-08T20:22:35.898Z,35.37
2022-12-08T20:25:12.395Z,35.38
2022-12-08T20:27:44.686Z,35.40
2022-12-08T20:30:17.396Z,35.40
2022-12-08T20:32:49.369Z,35.41
2022-12-08T20:35:21.478Z,35.38
2022-12-08T20:37:53.385Z,35.33
2022-12-08T20:40:25.311Z,35.29
2022-12-08T20:42:57.141Z,35.30
2022-12-08T20:45:29.037Z,35.30
2022-12-08T20:48:01.029Z,35.30
2022-12-08T20:50:32.974Z,35.28
2022-12-08T20:53:04.992Z,35.23
2022-12-08T20:55:37.149Z,35.23
2022-12-08T20:58:09.036Z,35.23
2022-12-08T21:00:41.060Z,35.19
2022-12-08T21:03:13.684Z,35.14
2022-12-08T21:05:49.982Z,35.10
2022-12-08T21:08:25.373Z,35.10
2022-12-08T21:10:57.461Z,35.08
2022-12-08T21:13:29.488Z,35.12
2022-12-08T21:16:01.434Z,35.08
2022-12-08T21:18:38.959Z,35.08
2022-12-08T21:21:12.227Z,35.11
2022-12-08T21:23:44.695Z,35.16
2022-12-08T21:26:19.924Z,35.18
2022-12-08T21:28:52.354Z,35.23
2022-12-08T21:31:26.521Z,35.28
2022-12-08T21:33:58.820Z,35.31
2022-12-08T21:36:30.769Z,35.35
2022-12-08T21:39:03.061Z,35.39
2022-12-08T21:41:53.829Z,35.49
2022-12-08T21:44:26.131Z,35.51
2022-12-08T21:46:58.101Z,35.50
2022-12-08T21:49:30.181Z,35.66
2022-12-08T21:52:02.289Z,35.77
2022-12-08T21:54:34.109Z,35.94
2022-12-08T21:57:06.211Z,36.06
2022-12-08T21:59:38.153Z,36.20
2022-12-08T22:02:16.831Z,36.24
2022-12-08T22:04:52.949Z,36.34
2022-12-08T22:07:25.066Z,36.35
2022-12-08T22:09:56.913Z,36.31
2022-12-08T22:12:28.801Z,36.38
2022-12-08T22:15:00.841Z,36.32
2022-12-08T22:17:35.975Z,36.32
2022-12-08T22:20:09.271Z,36.34
2022-12-08T22:22:41.354Z,36.32
2022-12-08T22:25:13.389Z,36.30
2022-12-08T22:27:45.568Z,36.31
2022-12-08T22:30:17.537Z,36.35
2022-12-08T22:32:49.507Z,36.39
2022-12-08T22:35:21.620Z,36.40
2022-12-08T22:37:53.537Z,36.47
2022-12-08T22:40:25.403Z,36.44
2022-12-08T22:42:57.434Z,36.49
2022-12-08T22:45:29.650Z,36.51
2022-12-08T22:48:02.117Z,36.50
2022-12-08T22:50:34.111Z,36.57
2022-12-08T22:53:05.983Z,36.62
2022-12-08T22:55:41.922Z,36.63
2022-12-08T22:58:14.076Z,36.70
2022-12-08T23:00:45.926Z,36.71
2022-12-08T23:03:17.817Z,36.71
2022-12-08T23:05:50.410Z,36.74
2022-12-08T23:08:22.503Z,36.75
2022-12-08T23:10:54.670Z,36.79
2022-12-08T23:13:26.576Z,36.80
2022-12-08T23:15:58.397Z,36.83
2022-12-08T23:18:30.271Z,36.83
2022-12-08T23:21:06.033Z,36.85
2022-12-08T23:23:38.149Z,36.90
2022-12-08T23:26:20.849Z,36.90
2022-12-08T23:31:42.872Z,37.01
2022-12-08T23:34:15.098Z,37.04
2022-12-08T23:36:47.167Z,37.08
2022-12-08T23:39:19.192Z,37.11
2022-12-08T23:41:51.749Z,37.10
2022-12-08T23:44:23.950Z,37.14
2022-12-08T23:46:56.157Z,37.18
2022-12-08T23:49:28.400Z,37.21
2022-12-08T23:52:00.371Z,37.29
2022-12-08T23:54:32.312Z,37.30
2022-12-08T23:57:04.175Z,37.31
2022-12-08T23:59:35.920Z,37.35
